Serra Atasoy — TCZS8 — position and weather

sailwx.info

Track history (hours):
 
Tides and Currents Weather Stations Pressure Air Temp Water Temp Dewpoint Dewpoint Depression Visibility Wind Speed Wind Dir Waves Ship Positions

Serra Atasoy

Last reported at 2018-Jun-13 01:17 UTC. Time now 2018-Jun-20 15:17 UTC.
Position N 40°01' E 026°10'.

Length 90 m; draft 5.6 m.

Type: Cargo ship. MMSI: 271042556.

Date/timePositionNaut miles runAvg speedWind from/ knotsBaromVisibWave heightAir tempDewpointWater temp
2018-Jun-13 01:17N 40°01' E 026°10'  
2018-Jun-10 07:57N 37°51' E 025°41'4 9.8
2018-Jun-10 07:30N 37°48' E 025°37'5 9.7
2018-Jun-10 07:00N 37°44' E 025°33'5 9.5
2018-Jun-10 06:30N 37°41' E 025°28'5 9.4
2018-Jun-10 06:00N 37°37' E 025°24'5 9.5
2018-Jun-10 05:30N 37°34' E 025°20'5 9.0
2018-Jun-10 05:00N 37°31' E 025°16'5 9.3
2018-Jun-10 04:30N 37°28' E 025°11'5 9.6
2018-Jun-10 04:00N 37°25' E 025°06'5 9.4
2018-Jun-10 03:30N 37°23' E 025°02'5 9.1
2018-Jun-10 03:00N 37°20' E 024°57'5 9.1
2018-Jun-10 02:31N 37°17' E 024°53'5 9.2
2018-Jun-10 02:01N 37°14' E 024°48'  
2018-Jun-07 12:24N 36°42' E 014°37'4 9.0
2018-Jun-07 12:00N 36°43' E 014°32'4 8.9
2018-Jun-07 11:29N 36°45' E 014°27'5 9.0
2018-Jun-07 10:58N 36°47' E 014°22'5 9.6
2018-Jun-07 10:30N 36°50' E 014°18'510.0
2018-Jun-07 10:00N 36°53' E 014°12'510.5
2018-Jun-07 09:30N 36°55' E 014°07'510.7
2018-Jun-07 09:00N 36°58' E 014°01'510.7
2018-Jun-07 08:30N 37°01' E 013°55'510.5
2018-Jun-07 08:00N 37°04' E 013°50'  
2018-Jun-04 17:48N 36°38' E 000°24'510.7
2018-Jun-04 17:19N 36°37' E 000°17'2610.0
2018-Jun-04 14:46N 36°34' W 000°14'310.0
2018-Jun-04 14:30N 36°34' W 000°17'2310.0
2018-Jun-04 12:12N 36°31' W 000°46'20910.5
2018-Jun-03 16:17N 36°10' W 005°05'310.3
2018-Jun-03 16:00N 36°09' W 005°08'610.4
2018-Jun-03 15:25N 36°07' W 005°15'6 2.9
2018-Jun-03 13:21N 36°09' W 005°22'0 0.0
2018-Jun-03 12:57N 36°09' W 005°22'0 0.0
2018-Jun-03 12:27N 36°09' W 005°22'0 0.0
2018-Jun-03 11:57N 36°09' W 005°22'0 0.0
2018-Jun-03 11:31N 36°09' W 005°22'1 1.9
2018-Jun-03 11:01N 36°08' W 005°23'3 5.3
2018-Jun-03 10:31N 36°06' W 005°22'2 4.3
2018-Jun-03 09:57N 36°05' W 005°19'6 1.9
2018-Jun-03 06:56N 36°07' W 005°12'1 2.6
2018-Jun-03 06:31N 36°08' W 005°11'0 1.0
2018-Jun-03 06:00N 36°07' W 005°11'0 0.9
2018-Jun-03 05:30N 36°07' W 005°11'0 1.0
2018-Jun-03 05:01N 36°08' W 005°11'1 2.0
2018-Jun-03 04:31N 36°07' W 005°12'5 9.0
2018-Jun-03 04:00N 36°04' W 005°16'611.8
2018-Jun-03 03:30N 36°01' W 005°22'611.6
2018-Jun-03 03:01N 35°58' W 005°29'610.9
2018-Jun-03 02:28N 35°56' W 005°35'5 9.7
2018-Jun-03 01:57N 35°56' W 005°42'4 8.8
2018-Jun-03 01:28N 35°56' W 005°47'  
Track history (hours):
 
Tides and Currents Weather Stations Pressure Air Temp Water Temp Dewpoint Dewpoint Depression Visibility Wind Speed Wind Dir Waves Ship Positions

Serra Atasoy

Last reported at 2018-Jun-13 01:17 UTC. Time now 2018-Jun-20 15:17 UTC.
Position N 40°01' E 026°10'.

Length 90 m; draft 5.6 m.

Type: Cargo ship. MMSI: 271042556.

Date/timePositionNaut miles runAvg speedWind from/ knotsBaromVisibWave heightAir tempDewpointWater temp
2018-Jun-13 01:17N 40°01' E 026°10'  
2018-Jun-10 07:57N 37°51' E 025°41'4 9.8
2018-Jun-10 07:30N 37°48' E 025°37'5 9.7
2018-Jun-10 07:00N 37°44' E 025°33'5 9.5
2018-Jun-10 06:30N 37°41' E 025°28'5 9.4
2018-Jun-10 06:00N 37°37' E 025°24'5 9.5
2018-Jun-10 05:30N 37°34' E 025°20'5 9.0
2018-Jun-10 05:00N 37°31' E 025°16'5 9.3
2018-Jun-10 04:30N 37°28' E 025°11'5 9.6
2018-Jun-10 04:00N 37°25' E 025°06'5 9.4
2018-Jun-10 03:30N 37°23' E 025°02'5 9.1
2018-Jun-10 03:00N 37°20' E 024°57'5 9.1
2018-Jun-10 02:31N 37°17' E 024°53'5 9.2
2018-Jun-10 02:01N 37°14' E 024°48'  
2018-Jun-07 12:24N 36°42' E 014°37'4 9.0
2018-Jun-07 12:00N 36°43' E 014°32'4 8.9
2018-Jun-07 11:29N 36°45' E 014°27'5 9.0
2018-Jun-07 10:58N 36°47' E 014°22'5 9.6
2018-Jun-07 10:30N 36°50' E 014°18'510.0
2018-Jun-07 10:00N 36°53' E 014°12'510.5
2018-Jun-07 09:30N 36°55' E 014°07'510.7
2018-Jun-07 09:00N 36°58' E 014°01'510.7
2018-Jun-07 08:30N 37°01' E 013°55'510.5
2018-Jun-07 08:00N 37°04' E 013°50'  
2018-Jun-04 17:48N 36°38' E 000°24'510.7
2018-Jun-04 17:19N 36°37' E 000°17'2610.0
2018-Jun-04 14:46N 36°34' W 000°14'310.0
2018-Jun-04 14:30N 36°34' W 000°17'2310.0
2018-Jun-04 12:12N 36°31' W 000°46'20910.5
2018-Jun-03 16:17N 36°10' W 005°05'310.3
2018-Jun-03 16:00N 36°09' W 005°08'610.4
2018-Jun-03 15:25N 36°07' W 005°15'6 2.9
2018-Jun-03 13:21N 36°09' W 005°22'0 0.0
2018-Jun-03 12:57N 36°09' W 005°22'0 0.0
2018-Jun-03 12:27N 36°09' W 005°22'0 0.0
2018-Jun-03 11:57N 36°09' W 005°22'0 0.0
2018-Jun-03 11:31N 36°09' W 005°22'1 1.9
2018-Jun-03 11:01N 36°08' W 005°23'3 5.3
2018-Jun-03 10:31N 36°06' W 005°22'2 4.3
2018-Jun-03 09:57N 36°05' W 005°19'6 1.9
2018-Jun-03 06:56N 36°07' W 005°12'1 2.6
2018-Jun-03 06:31N 36°08' W 005°11'0 1.0
2018-Jun-03 06:00N 36°07' W 005°11'0 0.9
2018-Jun-03 05:30N 36°07' W 005°11'0 1.0
2018-Jun-03 05:01N 36°08' W 005°11'1 2.0
2018-Jun-03 04:31N 36°07' W 005°12'5 9.0
2018-Jun-03 04:00N 36°04' W 005°16'611.8
2018-Jun-03 03:30N 36°01' W 005°22'611.6
2018-Jun-03 03:01N 35°58' W 005°29'610.9
2018-Jun-03 02:28N 35°56' W 005°35'5 9.7
2018-Jun-03 01:57N 35°56' W 005°42'4 8.8
2018-Jun-03 01:28N 35°56' W 005°47'  

Dump ship's entire track history